»·PEaware :: ASA1928 KPHX-KLAX

ASA1928 :: KPHX-KLAX

FLIGHT INFORMATION

Flight Status: Arrived
Operator:
Alaska Airlines
More flights by this operator :: More flights under this callsign
Pilot: Chris C. (10181)
Aircraft: BOEING 727-200
(B722)
More flights by this aircraft type
Origin: KPHX Phoenix Sky Harbor Intl
United States
Destination: KLAX Los Angeles Intl
United States
More flights between these airports :: More routes between these airports
Route: BXK4 PKE J4 TNP SEAVU2
File this flight plan on PilotEdge
Remarks:
Altitude:
(Current/Filed)
26,000ft
Speed:
(Current/Filed)
485kts
Departed: 09-Oct-19 09:49 AM
Arrived: 09-Oct-19 10:48 AM
Distance/Time
Traveled:
320nm/0:59
Distance/Time
To Go:
Arrived

Flight Plot

Page will automatically refresh every two minutes.

Flight plan parsing failed; only flown route is shown


Map Options




Map Legend


Flown Route
Filed Route
Departure Airport
Arrival Airport
Navaid (VOR, NDB)
Fix

Horizontal Profiles

Position Reports

Time Latitude Longitude Heading Altitude Ground
Speed
09-Oct-19 09:16 33.433900 -112.014444 93 1128ft 0kts
09-Oct-19 09:17 33.433900 -112.014444 93 1128ft 0kts
09-Oct-19 09:18 33.433900 -112.014444 93 1128ft 0kts
09-Oct-19 09:19 33.433900 -112.014444 93 1128ft 0kts
09-Oct-19 09:20 33.433900 -112.014444 93 1128ft 0kts
09-Oct-19 09:21 33.433900 -112.014444 93 1128ft 0kts
09-Oct-19 09:22 33.433900 -112.014444 93 1128ft 0kts
09-Oct-19 09:23 33.433900 -112.014444 93 1128ft 0kts
09-Oct-19 09:24 33.433900 -112.014444 93 1128ft 0kts
09-Oct-19 09:25 33.433900 -112.014444 93 1128ft 0kts
09-Oct-19 09:26 33.433900 -112.014444 93 1128ft 0kts
09-Oct-19 09:27 33.433900 -112.014444 93 1128ft 0kts
09-Oct-19 09:28 33.433900 -112.014444 93 1128ft 0kts
09-Oct-19 09:29 33.433900 -112.014444 93 1128ft 0kts
09-Oct-19 09:30 33.433900 -112.014444 93 1128ft 0kts
09-Oct-19 09:31 33.433900 -112.014444 93 1128ft 0kts
09-Oct-19 09:32 33.433900 -112.014444 93 1128ft 0kts
09-Oct-19 09:33 33.433900 -112.014445 93 1128ft 0kts
09-Oct-19 09:34 33.433907 -112.014599 93 1128ft 2kts
09-Oct-19 09:35 33.434175 -112.015195 159 1128ft 2kts
09-Oct-19 09:36 33.434522 -112.015188 199 1128ft 0kts
09-Oct-19 09:37 33.434521 -112.015188 199 1128ft 0kts
09-Oct-19 09:38 33.434521 -112.015188 199 1128ft 0kts
09-Oct-19 09:39 33.434283 -112.015286 198 1128ft 6kts
09-Oct-19 09:40 33.433727 -112.015503 198 1127ft 0kts
09-Oct-19 09:41 33.433644 -112.015536 196 1127ft 4kts
09-Oct-19 09:42 33.433495 -112.015573 189 1128ft 0kts
09-Oct-19 09:43 33.433468 -112.016007 252 1140ft 0kts
09-Oct-19 09:44 33.433068 -112.017144 238 1126ft 14kts
09-Oct-19 09:45 33.432867 -112.023496 270 1122ft 22kts
09-Oct-19 09:46 33.432206 -112.026925 184 1121ft 0kts
09-Oct-19 09:47 33.432206 -112.026925 184 1121ft 0kts
09-Oct-19 09:48 33.431063 -112.023724 89 1122ft 63kts
09-Oct-19 09:49 33.431615 -111.975175 85 2061ft 174kts
09-Oct-19 09:50 33.436673 -111.907919 84 4496ft 223kts
09-Oct-19 09:51 33.423177 -111.834830 113 6960ft 247kts
09-Oct-19 09:52 33.386428 -111.760061 157 8840ft 278kts
09-Oct-19 09:53 33.312349 -111.784859 203 10735ft 299kts
09-Oct-19 09:54 33.227831 -111.832661 206 11636ft 365kts
09-Oct-19 09:55 33.151930 -111.905286 252 14832ft 346kts
09-Oct-19 09:56 33.158636 -112.019690 288 16283ft 373kts
09-Oct-19 09:57 33.193196 -112.140040 289 18000ft 387kts
09-Oct-19 09:58 33.231691 -112.261383 293 19641ft 397kts
09-Oct-19 09:59 33.280725 -112.381064 297 21130ft 405kts
09-Oct-19 10:00 33.331699 -112.502776 295 22438ft 413kts
09-Oct-19 10:01 33.379144 -112.629127 293 23615ft 420kts
09-Oct-19 10:02 33.427146 -112.758367 294 24674ft 427kts
09-Oct-19 10:03 33.473093 -112.891793 284 25227ft 442kts
09-Oct-19 10:04 33.496839 -113.038413 279 25737ft 456kts
09-Oct-19 10:05 33.534228 -113.185527 290 25910ft 474kts
09-Oct-19 10:06 33.581069 -113.335167 291 25899ft 483kts
09-Oct-19 10:07 33.630604 -113.485429 293 25899ft 485kts
09-Oct-19 10:08 33.684352 -113.634275 293 25861ft 488kts
09-Oct-19 10:09 33.740398 -113.781733 295 25812ft 490kts
09-Oct-19 10:10 33.802086 -113.927217 295 25825ft 485kts
09-Oct-19 10:11 33.865384 -114.068581 295 25819ft 477kts
09-Oct-19 10:12 33.924216 -114.209836 292 25816ft 466kts
09-Oct-19 10:13 33.979326 -114.349267 293 25814ft 457kts
09-Oct-19 10:14 34.024810 -114.491619 293 25820ft 456kts
09-Oct-19 10:16 34.077642 -114.631215 295 25820ft 457kts
09-Oct-19 10:17 34.114116 -114.776876 260 25820ft 462kts
09-Oct-19 10:18 34.100038 -114.930842 273 25819ft 468kts
09-Oct-19 10:19 34.106032 -115.089292 271 25818ft 476kts
09-Oct-19 10:20 34.108596 -115.249972 271 25835ft 482kts
09-Oct-19 10:21 34.111910 -115.412626 271 25931ft 485kts
09-Oct-19 10:22 34.110830 -115.576142 268 25947ft 490kts
09-Oct-19 10:23 34.110421 -115.717838 271 25945ft 493kts
09-Oct-19 10:24 34.092604 -115.881916 262 25953ft 493kts
09-Oct-19 10:25 34.074186 -116.039764 264 25932ft 453kts
09-Oct-19 10:26 34.051749 -116.182749 259 25906ft 418kts
09-Oct-19 10:27 34.022008 -116.319496 257 22584ft 435kts
09-Oct-19 10:28 33.998021 -116.460074 261 20396ft 419kts
09-Oct-19 10:29 33.984151 -116.597784 263 18203ft 407kts
09-Oct-19 10:30 33.973873 -116.726380 266 16895ft 375kts
09-Oct-19 10:31 33.968156 -116.850506 267 16977ft 387kts
09-Oct-19 10:32 33.963184 -116.986912 267 16990ft 410kts
09-Oct-19 10:33 33.958547 -117.115412 267 16976ft 352kts
09-Oct-19 10:33 33.950675 -117.211606 260 16305ft 352kts
09-Oct-19 10:35 33.928725 -117.345967 259 14860ft 344kts
09-Oct-19 10:36 33.943858 -117.456409 290 13057ft 336kts
09-Oct-19 10:36 33.970729 -117.542883 290 12050ft 318kts
09-Oct-19 10:38 34.006328 -117.662588 276 12272ft 326kts
09-Oct-19 10:39 33.993563 -117.767721 271 11310ft 321kts
09-Oct-19 10:39 33.992274 -117.856159 266 10179ft 317kts
09-Oct-19 10:40 33.978088 -117.959089 265 8079ft 303kts
09-Oct-19 10:42 33.966277 -118.073683 265 5275ft 287kts
09-Oct-19 10:42 33.962440 -118.146800 265 4278ft 240kts
09-Oct-19 10:43 33.952253 -118.224259 261 2432ft 237kts
09-Oct-19 10:45 33.944761 -118.305035 259 1820ft 155kts
09-Oct-19 10:45 33.940921 -118.347742 263 698ft 144kts
09-Oct-19 10:46 33.936394 -118.392255 262 112ft 94kts
09-Oct-19 10:47 33.936180 -118.405146 263 128ft 25kts
09-Oct-19 10:48 33.937539 -118.409120 352 131ft 19kts
09-Oct-19 10:49 33.939254 -118.403546 83 126ft 26kts
09-Oct-19 10:50 33.940817 -118.398339 352 119ft 13kts
09-Oct-19 10:51 33.941638 -118.399097 265 120ft 0kts
09-Oct-19 10:52 33.941638 -118.399097 265 120ft 0kts
09-Oct-19 10:53 33.941638 -118.399097 265 120ft 0kts

Navigation Log

Ident Type
Flight plan parsing failed, navigation log unavailable